Time,TemperatureF,DewpointF,PressureIn,WindDirection,WindDirectionDegrees,WindSpeedMPH,WindSpeedGustMPH,Humidity,HourlyPrecipIn,Conditions,Clouds,dailyrainin,SoftwareType,DateUTC
2013-02-19 00:01:00,74.0,73.0,29.08,NW,317,3.0,3.0,98,0.00,,,0.00,,2013-02-18 22:01:00,
2013-02-19 00:11:00,73.0,72.0,29.08,West,268,3.0,7.0,98,0.00,,,0.00,,2013-02-18 22:11:00,
2013-02-19 00:21:00,73.0,72.0,29.08,West,268,3.0,7.0,98,0.00,,,0.00,,2013-02-18 22:21:00,
2013-02-19 00:33:00,74.0,73.0,29.08,West,261,5.0,7.0,98,0.00,,,0.00,,2013-02-18 22:33:00,
2013-02-19 00:42:00,74.0,73.0,29.08,West,261,5.0,7.0,98,0.00,,,0.00,,2013-02-18 22:42:00,
2013-02-19 00:52:00,73.0,72.0,29.08,SSW,194,3.0,6.0,98,0.00,,,0.00,,2013-02-18 22:52:00,
2013-02-19 01:01:00,73.0,72.0,29.08,SSW,194,3.0,6.0,98,0.00,,,0.00,,2013-02-18 23:01:00,
2013-02-19 01:11:00,73.0,72.0,29.08,SSW,194,3.0,6.0,98,0.00,,,0.00,,2013-02-18 23:11:00,
2013-02-19 01:21:00,74.0,73.0,29.08,West,276,2.0,5.0,98,0.00,,,0.00,,2013-02-18 23:21:00,
2013-02-19 01:32:00,74.0,73.0,29.08,West,270,5.0,5.0,98,0.00,,,0.00,,2013-02-18 23:32:00,
2013-02-19 01:42:00,74.0,73.0,29.08,West,270,5.0,5.0,98,0.00,,,0.00,,2013-02-18 23:42:00,
2013-02-19 01:52:00,73.0,72.0,29.08,West,263,3.0,5.0,98,0.00,,,0.00,,2013-02-18 23:52:00,
2013-02-19 02:02:00,73.0,72.0,29.08,West,263,3.0,5.0,98,0.00,,,0.00,,2013-02-19 00:02:00,
2013-02-19 02:11:00,73.0,72.0,29.08,West,263,3.0,5.0,98,0.00,,,0.00,,2013-02-19 00:11:00,
2013-02-19 02:21:00,74.0,73.0,29.08,West,270,6.0,8.0,98,0.00,,,0.00,,2013-02-19 00:21:00,
2013-02-19 02:33:00,74.0,73.0,29.08,West,270,6.0,8.0,98,0.00,,,0.00,,2013-02-19 00:33:00,
2013-02-19 02:42:00,74.0,73.0,29.08,West,270,6.0,8.0,98,0.00,,,0.00,,2013-02-19 00:42:00,
2013-02-19 02:52:00,74.0,73.0,29.08,WSW,248,5.0,8.0,98,0.00,,,0.00,,2013-02-19 00:52:00,
2013-02-19 03:12:00,74.0,73.0,29.08,West,266,5.0,8.0,98,0.00,,,0.00,,2013-02-19 01:12:00,
2013-02-19 03:21:00,74.0,73.0,29.08,West,278,6.0,8.0,98,0.00,,,0.00,,2013-02-19 01:21:00,
2013-02-19 03:32:00,74.0,73.0,29.08,West,278,6.0,8.0,98,0.00,,,0.00,,2013-02-19 01:32:00,
2013-02-19 03:42:00,74.0,73.0,29.08,West,278,6.0,8.0,98,0.00,,,0.00,,2013-02-19 01:42:00,
2013-02-19 03:52:00,74.0,73.0,29.08,West,278,6.0,8.0,98,0.00,,,0.00,,2013-02-19 01:52:00,
2013-02-19 04:02:00,74.0,73.0,29.07,West,278,5.0,6.0,98,0.00,,,0.00,,2013-02-19 02:02:00,
2013-02-19 04:13:00,74.0,73.0,29.07,West,278,5.0,6.0,98,0.00,,,0.00,,2013-02-19 02:13:00,
2013-02-19 04:22:00,74.0,73.0,29.07,NNW,340,4.0,6.0,98,0.00,,,0.00,,2013-02-19 02:22:00,
2013-02-19 04:33:00,74.0,73.0,29.07,NNW,340,4.0,6.0,98,0.00,,,0.00,,2013-02-19 02:33:00,
2013-02-19 04:41:00,74.0,73.0,29.07,NNW,340,4.0,6.0,98,0.00,,,0.00,,2013-02-19 02:41:00,
2013-02-19 04:52:00,73.0,72.0,29.08,NNW,330,3.0,6.0,98,0.00,,,0.00,,2013-02-19 02:52:00,
2013-02-19 05:04:00,72.0,71.0,29.09,NW,316,4.0,6.0,98,0.00,,,0.00,,2013-02-19 03:04:00,
2013-02-19 05:21:00,73.0,72.0,29.09,NW,313,3.0,6.0,98,0.00,,,0.00,,2013-02-19 03:21:00,
2013-02-19 05:32:00,72.0,71.0,29.10,North,0,1.0,3.0,98,0.00,,,0.00,,2013-02-19 03:32:00,
2013-02-19 05:42:00,72.0,71.0,29.10,North,0,1.0,3.0,98,0.00,,,0.00,,2013-02-19 03:42:00,
2013-02-19 05:52:00,72.0,71.0,29.10,North,0,1.0,3.0,98,0.00,,,0.00,,2013-02-19 03:52:00,
2013-02-19 06:02:00,73.0,72.0,29.10,NW,326,4.0,8.0,98,0.00,,,0.00,,2013-02-19 04:02:00,
2013-02-19 06:22:00,73.0,72.0,29.11,WNW,296,5.0,8.0,98,0.00,,,0.00,,2013-02-19 04:22:00,
2013-02-19 06:32:00,73.0,72.0,29.12,WNW,285,5.0,7.0,98,0.00,,,0.00,,2013-02-19 04:32:00,
2013-02-19 06:42:00,73.0,72.0,29.12,WNW,285,5.0,7.0,98,0.00,,,0.00,,2013-02-19 04:42:00,
2013-02-19 06:52:00,74.0,73.0,29.12,NW,316,5.0,8.0,98,0.00,,,0.00,,2013-02-19 04:52:00,
2013-02-19 07:01:00,74.0,73.0,29.12,West,270,6.0,8.0,98,0.00,,,0.00,,2013-02-19 05:01:00,
2013-02-19 07:12:00,74.0,73.0,29.12,West,270,6.0,8.0,98,0.00,,,0.00,,2013-02-19 05:12:00,
2013-02-19 07:22:00,75.0,74.0,29.12,West,260,4.0,10.0,98,0.00,,,0.00,,2013-02-19 05:22:00,
2013-02-19 07:32:00,76.0,75.0,29.12,WSW,242,5.0,9.0,98,0.00,,,0.00,,2013-02-19 05:32:00,
2013-02-19 07:42:00,76.0,75.0,29.12,WSW,242,5.0,9.0,98,0.00,,,0.00,,2013-02-19 05:42:00,
2013-02-19 07:52:00,78.0,77.0,29.12,SSW,202,5.0,10.0,98,0.00,,,0.00,,2013-02-19 05:52:00,
2013-02-19 08:02:00,79.0,78.0,29.13,WSW,250,5.0,9.0,98,0.00,,,0.00,,2013-02-19 06:02:00,
2013-02-19 08:11:00,79.0,78.0,29.13,WSW,250,5.0,9.0,98,0.00,,,0.00,,2013-02-19 06:11:00,
2013-02-19 08:21:00,78.0,77.0,29.13,SW,216,7.0,10.0,98,0.00,,,0.00,,2013-02-19 06:21:00,
2013-02-19 08:32:00,78.0,77.0,29.13,SW,216,7.0,10.0,98,0.00,,,0.00,,2013-02-19 06:32:00,
2013-02-19 08:41:00,78.0,77.0,29.13,SW,216,7.0,10.0,98,0.00,,,0.00,,2013-02-19 06:41:00,
2013-02-19 08:52:00,81.0,80.0,29.13,West,270,7.0,13.0,98,0.00,,,0.00,,2013-02-19 06:52:00,
2013-02-19 09:01:00,81.0,80.0,29.13,West,260,9.0,10.0,98,0.00,,,0.00,,2013-02-19 07:01:00,
2013-02-19 09:11:00,81.0,80.0,29.13,West,260,9.0,10.0,98,0.00,,,0.00,,2013-02-19 07:11:00,
2013-02-19 09:21:00,81.0,80.0,29.13,West,260,9.0,10.0,98,0.00,,,0.00,,2013-02-19 07:21:00,
2013-02-19 09:32:00,83.0,82.0,29.12,WNW,292,9.0,12.0,98,0.00,,,0.00,,2013-02-19 07:32:00,
2013-02-19 09:41:00,83.0,82.0,29.12,WNW,292,9.0,12.0,98,0.00,,,0.00,,2013-02-19 07:41:00,
2013-02-19 09:52:00,84.0,83.0,29.12,NNW,329,6.0,13.0,98,0.00,,,0.00,,2013-02-19 07:52:00,
2013-02-19 10:01:00,87.0,86.0,29.12,West,273,5.0,10.0,98,0.00,,,0.00,,2013-02-19 08:01:00,
2013-02-19 10:11:00,87.0,86.0,29.12,West,273,5.0,10.0,98,0.00,,,0.00,,2013-02-19 08:11:00,
2013-02-19 10:21:00,87.0,86.0,29.12,West,273,5.0,10.0,98,0.00,,,0.00,,2013-02-19 08:21:00,
2013-02-19 10:31:00,88.0,54.0,29.12,West,259,8.0,10.0,32,0.00,,,0.00,,2013-02-19 08:31:00,
2013-02-19 10:41:00,88.0,54.0,29.12,West,259,8.0,10.0,32,0.00,,,0.00,,2013-02-19 08:41:00,
2013-02-19 10:52:00,87.0,58.0,29.12,WSW,238,8.0,14.0,38,0.00,,,0.00,,2013-02-19 08:52:00,
2013-02-19 11:01:00,87.0,58.0,29.12,WSW,238,8.0,14.0,38,0.00,,,0.00,,2013-02-19 09:01:00,
2013-02-19 11:11:00,87.0,58.0,29.12,WSW,238,8.0,14.0,38,0.00,,,0.00,,2013-02-19 09:11:00,
2013-02-19 11:21:00,85.0,82.0,29.13,SSW,192,9.0,13.0,91,0.00,,,0.00,,2013-02-19 09:21:00,
2013-02-19 12:01:00,86.0,86.0,29.11,SE,142,8.0,14.0,100,0.00,,,0.00,,2013-02-19 10:01:00,
2013-02-19 12:11:00,86.0,86.0,29.11,SE,142,8.0,14.0,100,0.00,,,0.00,,2013-02-19 10:11:00,
2013-02-19 12:51:00,86.0,86.0,29.10,South,190,14.0,18.0,100,0.00,,,0.00,,2013-02-19 10:51:00,
2013-02-19 13:01:00,86.0,86.0,29.10,South,190,14.0,18.0,100,0.00,,,0.00,,2013-02-19 11:01:00,
2013-02-19 13:11:00,86.0,86.0,29.10,South,190,14.0,18.0,100,0.00,,,0.00,,2013-02-19 11:11:00,
2013-02-19 13:21:00,88.0,88.0,29.10,SSW,196,14.0,21.0,100,0.00,,,0.00,,2013-02-19 11:21:00,
2013-02-19 13:32:00,83.0,82.0,29.11,SW,226,18.0,23.0,97,0.00,,,0.00,,2013-02-19 11:32:00,
2013-02-19 13:42:00,83.0,82.0,29.11,SW,226,18.0,23.0,97,0.00,,,0.00,,2013-02-19 11:42:00,
2013-02-19 14:01:00,83.0,80.0,29.11,South,190,15.0,25.0,90,0.00,,,0.00,,2013-02-19 12:01:00,
2013-02-19 14:12:00,83.0,80.0,29.11,South,190,15.0,25.0,90,0.00,,,0.00,,2013-02-19 12:12:00,
2013-02-19 14:21:00,83.0,80.0,29.11,South,190,15.0,25.0,90,0.00,,,0.00,,2013-02-19 12:21:00,
2013-02-19 14:32:00,83.0,82.0,29.11,SW,225,17.0,22.0,98,0.00,,,0.00,,2013-02-19 12:32:00,
2013-02-19 14:41:00,83.0,82.0,29.11,SW,225,17.0,22.0,98,0.00,,,0.00,,2013-02-19 12:41:00,
2013-02-19 14:52:00,84.0,42.0,29.11,SSW,208,14.0,23.0,23,0.00,,,0.00,,2013-02-19 12:52:00,
2013-02-19 15:01:00,83.0,68.0,29.11,South,179,14.0,21.0,61,0.00,,,0.00,,2013-02-19 13:01:00,
2013-02-19 15:11:00,83.0,68.0,29.11,South,179,14.0,21.0,61,0.00,,,0.00,,2013-02-19 13:11:00,
2013-02-19 15:22:00,83.0,21.0,29.12,WSW,242,15.0,22.0,10,0.00,,,0.00,,2013-02-19 13:22:00,
2013-02-19 15:31:00,81.0,76.0,29.12,SW,224,12.0,21.0,84,0.00,,,0.00,,2013-02-19 13:31:00,
2013-02-19 15:41:00,81.0,76.0,29.12,SW,224,12.0,21.0,84,0.00,,,0.00,,2013-02-19 13:41:00,
2013-02-19 16:01:00,79.0,78.0,29.13,SW,228,15.0,21.0,98,0.00,,,0.00,,2013-02-19 14:01:00,
2013-02-19 16:11:00,79.0,78.0,29.13,SW,228,15.0,21.0,98,0.00,,,0.00,,2013-02-19 14:11:00,
2013-02-19 16:21:00,79.0,78.0,29.13,SW,228,15.0,21.0,98,0.00,,,0.00,,2013-02-19 14:21:00,
2013-02-19 16:32:00,76.0,75.0,29.14,SW,235,12.0,21.0,98,0.00,,,0.00,,2013-02-19 14:32:00,
2013-02-19 16:41:00,76.0,75.0,29.14,SW,235,12.0,21.0,98,0.00,,,0.00,,2013-02-19 14:41:00,
2013-02-19 16:52:00,80.0,79.0,29.14,SW,232,11.0,22.0,98,0.00,,,0.00,,2013-02-19 14:52:00,
2013-02-19 17:21:00,80.0,80.0,29.14,SW,217,12.0,22.0,100,0.00,,,0.00,,2013-02-19 15:21:00,
2013-02-19 17:31:00,78.0,78.0,29.15,SSW,211,12.0,23.0,100,0.00,,,0.00,,2013-02-19 15:31:00,
2013-02-19 17:41:00,78.0,78.0,29.15,SSW,211,12.0,23.0,100,0.00,,,0.00,,2013-02-19 15:41:00,
2013-02-19 17:52:00,77.0,66.0,29.15,SSW,192,13.0,20.0,70,0.00,,,0.00,,2013-02-19 15:52:00,
2013-02-19 18:01:00,77.0,77.0,29.16,SSW,206,12.0,22.0,100,0.00,,,0.00,,2013-02-19 16:01:00,
2013-02-19 18:11:00,77.0,77.0,29.16,SSW,206,12.0,22.0,100,0.00,,,0.00,,2013-02-19 16:11:00,
2013-02-19 18:21:00,76.0,76.0,29.17,WNW,292,9.0,22.0,100,0.00,,,0.00,,2013-02-19 16:21:00,
2013-02-19 18:31:00,76.0,76.0,29.17,South,181,14.0,20.0,100,0.00,,,0.00,,2013-02-19 16:31:00,
2013-02-19 18:41:00,76.0,76.0,29.17,South,181,14.0,20.0,100,0.00,,,0.00,,2013-02-19 16:41:00,
2013-02-19 18:51:00,76.0,76.0,29.17,South,181,14.0,20.0,100,0.00,,,0.00,,2013-02-19 16:51:00,
2013-02-19 19:01:00,75.0,74.0,29.19,West,270,13.0,21.0,98,0.00,,,0.00,,2013-02-19 17:01:00,
2013-02-19 19:11:00,75.0,74.0,29.19,West,270,13.0,21.0,98,0.00,,,0.00,,2013-02-19 17:11:00,
2013-02-19 19:21:00,75.0,74.0,29.19,West,270,13.0,21.0,98,0.00,,,0.00,,2013-02-19 17:21:00,
2013-02-19 19:31:00,73.0,72.0,29.20,West,266,13.0,18.0,98,0.00,,,0.00,,2013-02-19 17:31:00,
2013-02-19 19:41:00,73.0,72.0,29.20,West,266,13.0,18.0,98,0.00,,,0.00,,2013-02-19 17:41:00,
2013-02-19 19:52:00,73.0,72.0,29.21,SSW,203,9.0,16.0,98,0.00,,,0.00,,2013-02-19 17:52:00,
2013-02-19 20:01:00,74.0,73.0,29.22,SW,225,13.0,17.0,98,0.00,,,0.00,,2013-02-19 18:01:00,
2013-02-19 20:11:00,74.0,73.0,29.22,SW,225,13.0,17.0,98,0.00,,,0.00,,2013-02-19 18:11:00,
2013-02-19 20:21:00,73.0,72.0,29.23,WSW,249,9.0,17.0,98,0.00,,,0.00,,2013-02-19 18:21:00,
2013-02-19 20:31:00,73.0,72.0,29.23,WSW,249,9.0,17.0,98,0.00,,,0.00,,2013-02-19 18:31:00,
2013-02-19 20:41:00,73.0,72.0,29.23,WSW,249,9.0,17.0,98,0.00,,,0.00,,2013-02-19 18:41:00,
2013-02-19 20:51:00,73.0,72.0,29.23,WSW,249,9.0,17.0,98,0.00,,,0.00,,2013-02-19 18:51:00,
2013-02-19 21:01:00,73.0,72.0,29.25,West,259,13.0,17.0,98,0.00,,,0.00,,2013-02-19 19:01:00,
2013-02-19 21:11:00,73.0,72.0,29.25,West,259,13.0,17.0,98,0.00,,,0.00,,2013-02-19 19:11:00,
2013-02-19 21:21:00,73.0,72.0,29.25,West,259,13.0,17.0,98,0.00,,,0.00,,2013-02-19 19:21:00,
2013-02-19 21:31:00,73.0,72.0,29.25,West,259,13.0,17.0,98,0.00,,,0.00,,2013-02-19 19:31:00,
2013-02-19 21:41:00,73.0,72.0,29.25,West,259,13.0,17.0,98,0.00,,,0.00,,2013-02-19 19:41:00,
2013-02-19 21:52:00,73.0,72.0,29.26,WNW,292,10.0,17.0,98,0.00,,,0.00,,2013-02-19 19:52:00,
2013-02-19 22:01:00,73.0,72.0,29.26,WNW,292,10.0,17.0,98,0.00,,,0.00,,2013-02-19 20:01:00,
2013-02-19 22:11:00,73.0,72.0,29.26,WNW,292,10.0,17.0,98,0.00,,,0.00,,2013-02-19 20:11:00,
2013-02-19 22:21:00,73.0,72.0,29.28,WSW,243,14.0,17.0,98,0.00,,,0.00,,2013-02-19 20:21:00,
2013-02-19 22:32:00,73.0,72.0,29.28,WSW,243,14.0,17.0,98,0.00,,,0.00,,2013-02-19 20:32:00,
2013-02-19 22:41:00,73.0,72.0,29.28,WSW,243,14.0,17.0,98,0.00,,,0.00,,2013-02-19 20:41:00,
2013-02-19 22:52:00,73.0,72.0,29.29,WNW,285,9.0,16.0,98,0.00,,,0.00,,2013-02-19 20:52:00,
2013-02-19 23:01:00,71.0,70.0,29.30,WSW,247,12.0,16.0,98,0.00,,,0.00,,2013-02-19 21:01:00,
2013-02-19 23:11:00,71.0,70.0,29.30,WSW,247,12.0,16.0,98,0.00,,,0.00,,2013-02-19 21:11:00,
2013-02-19 23:21:00,71.0,70.0,29.30,WSW,247,12.0,16.0,98,0.00,,,0.00,,2013-02-19 21:21:00,
2013-02-19 23:31:00,71.0,70.0,29.30,WSW,247,12.0,16.0,98,0.00,,,0.00,,2013-02-19 21:31:00,
2013-02-19 23:42:00,71.0,70.0,29.30,WSW,247,12.0,16.0,98,0.00,,,0.00,,2013-02-19 21:42:00,